sensor_id;sensor_type;location;lat;lon;timestamp;pressure;altitude;pressure_sealevel;temperature;humidity
40794;BME280;26502;51.886;15.604;2023-05-08T00:01:10;101864.89;;;5.14;66.52
40794;BME280;26502;51.886;15.604;2023-05-08T00:06:16;101869.59;;;5.08;66.53
40794;BME280;26502;51.886;15.604;2023-05-08T00:11:22;101868.45;;;4.98;66.50
40794;BME280;26502;51.886;15.604;2023-05-08T00:16:28;101869.75;;;4.88;66.52
40794;BME280;26502;51.886;15.604;2023-05-08T00:21:34;101875.89;;;4.86;66.55
40794;BME280;26502;51.886;15.604;2023-05-08T00:26:40;101873.54;;;4.79;66.60
40794;BME280;26502;51.886;15.604;2023-05-08T00:31:47;101875.77;;;4.75;66.59
40794;BME280;26502;51.886;15.604;2023-05-08T00:36:54;101874.10;;;4.66;66.55
40794;BME280;26502;51.886;15.604;2023-05-08T00:42:00;101883.13;;;4.56;66.58
40794;BME280;26502;51.886;15.604;2023-05-08T00:47:06;101878.77;;;4.44;66.52
40794;BME280;26502;51.886;15.604;2023-05-08T00:52:13;101877.30;;;4.40;66.63
40794;BME280;26502;51.886;15.604;2023-05-08T00:57:19;101883.75;;;4.35;66.70
40794;BME280;26502;51.886;15.604;2023-05-08T01:02:26;101881.55;;;4.28;66.67
40794;BME280;26502;51.886;15.604;2023-05-08T01:07:32;101886.71;;;4.19;66.63
40794;BME280;26502;51.886;15.604;2023-05-08T01:12:47;101888.36;;;4.10;66.62
40794;BME280;26502;51.886;15.604;2023-05-08T01:18:04;101892.06;;;3.98;66.71
40794;BME280;26502;51.886;15.604;2023-05-08T01:34:29;101904.65;;;3.71;66.90
40794;BME280;26502;51.886;15.604;2023-05-08T01:39:44;101902.46;;;3.66;67.06
40794;BME280;26502;51.886;15.604;2023-05-08T01:44:55;101902.61;;;3.64;67.12
40794;BME280;26502;51.886;15.604;2023-05-08T01:50:05;101903.07;;;3.59;66.99
40794;BME280;26502;51.886;15.604;2023-05-08T01:55:15;101907.00;;;3.53;67.12
40794;BME280;26502;51.886;15.604;2023-05-08T02:00:24;101905.34;;;3.47;67.06
40794;BME280;26502;51.886;15.604;2023-05-08T02:05:32;101906.98;;;3.40;67.06
40794;BME280;26502;51.886;15.604;2023-05-08T02:10:41;101907.47;;;3.28;67.11
40794;BME280;26502;51.886;15.604;2023-05-08T02:15:48;101913.88;;;3.23;67.14
40794;BME280;26502;51.886;15.604;2023-05-08T02:20:55;101912.97;;;3.11;67.14
40794;BME280;26502;51.886;15.604;2023-05-08T02:26:05;101918.67;;;2.97;67.02
40794;BME280;26502;51.886;15.604;2023-05-08T02:31:13;101925.17;;;2.88;67.23
40794;BME280;26502;51.886;15.604;2023-05-08T02:36:19;101926.30;;;2.83;67.25
40794;BME280;26502;51.886;15.604;2023-05-08T02:41:29;101933.36;;;2.76;67.37
40794;BME280;26502;51.886;15.604;2023-05-08T02:46:43;101930.40;;;2.68;67.39
40794;BME280;26502;51.886;15.604;2023-05-08T02:51:54;101935.15;;;2.61;67.51
40794;BME280;26502;51.886;15.604;2023-05-08T02:57:09;101940.35;;;2.57;67.43
40794;BME280;26502;51.886;15.604;2023-05-08T03:02:22;101938.32;;;2.52;67.56
40794;BME280;26502;51.886;15.604;2023-05-08T03:07:30;101941.66;;;2.44;67.56
40794;BME280;26502;51.886;15.604;2023-05-08T03:12:44;101943.46;;;2.38;67.72
40794;BME280;26502;51.886;15.604;2023-05-08T03:17:53;101945.62;;;2.33;67.81
40794;BME280;26502;51.886;15.604;2023-05-08T03:23:00;101940.59;;;2.27;68.08
40794;BME280;26502;51.886;15.604;2023-05-08T03:28:08;101940.85;;;2.23;68.05
40794;BME280;26502;51.886;15.604;2023-05-08T03:33:14;101943.02;;;2.18;68.13
40794;BME280;26502;51.886;15.604;2023-05-08T03:38:22;101945.65;;;2.18;68.27
40794;BME280;26502;51.886;15.604;2023-05-08T03:43:29;101947.88;;;2.24;68.33
40794;BME280;26502;51.886;15.604;2023-05-08T03:48:36;101948.56;;;2.31;68.52
40794;BME280;26502;51.886;15.604;2023-05-08T03:53:44;101952.84;;;2.34;68.55
40794;BME280;26502;51.886;15.604;2023-05-08T03:58:55;101950.13;;;2.38;68.68
40794;BME280;26502;51.886;15.604;2023-05-08T04:04:08;101951.84;;;2.37;68.75
40794;BME280;26502;51.886;15.604;2023-05-08T04:09:18;101955.89;;;2.37;68.87
40794;BME280;26502;51.886;15.604;2023-05-08T04:14:28;101958.94;;;2.41;69.05
40794;BME280;26502;51.886;15.604;2023-05-08T04:19:41;101961.33;;;2.46;69.18
40794;BME280;26502;51.886;15.604;2023-05-08T04:24:51;101969.39;;;2.53;69.24
40794;BME280;26502;51.886;15.604;2023-05-08T04:30:00;101972.42;;;2.65;69.70
40794;BME280;26502;51.886;15.604;2023-05-08T04:35:08;101973.37;;;2.77;69.76
40794;BME280;26502;51.886;15.604;2023-05-08T04:40:17;101977.43;;;2.86;69.89
40794;BME280;26502;51.886;15.604;2023-05-08T04:45:23;101981.36;;;2.99;70.25
40794;BME280;26502;51.886;15.604;2023-05-08T04:50:29;101987.92;;;3.20;70.51
40794;BME280;26502;51.886;15.604;2023-05-08T04:55:35;101995.56;;;3.35;70.82
40794;BME280;26502;51.886;15.604;2023-05-08T05:00:41;102003.25;;;3.63;71.14
40794;BME280;26502;51.886;15.604;2023-05-08T05:05:47;102001.20;;;3.97;71.30
40794;BME280;26502;51.886;15.604;2023-05-08T05:10:53;102007.79;;;4.27;71.42
40794;BME280;26502;51.886;15.604;2023-05-08T05:16:00;102014.64;;;4.64;71.29
40794;BME280;26502;51.886;15.604;2023-05-08T05:21:06;102016.55;;;5.03;71.47
40794;BME280;26502;51.886;15.604;2023-05-08T05:26:13;102017.70;;;5.42;71.29
40794;BME280;26502;51.886;15.604;2023-05-08T05:31:19;102017.13;;;5.76;70.94
40794;BME280;26502;51.886;15.604;2023-05-08T05:36:25;102023.02;;;6.03;70.69
40794;BME280;26502;51.886;15.604;2023-05-08T05:41:31;102024.86;;;6.37;70.57
40794;BME280;26502;51.886;15.604;2023-05-08T05:46:39;102026.63;;;6.65;70.43
40794;BME280;26502;51.886;15.604;2023-05-08T05:51:45;102032.90;;;6.84;70.07
40794;BME280;26502;51.886;15.604;2023-05-08T05:56:52;102033.30;;;6.95;69.81
40794;BME280;26502;51.886;15.604;2023-05-08T06:01:58;102035.83;;;7.08;69.69
40794;BME280;26502;51.886;15.604;2023-05-08T06:07:04;102036.95;;;7.29;69.61
40794;BME280;26502;51.886;15.604;2023-05-08T06:12:10;102039.13;;;7.49;69.40
40794;BME280;26502;51.886;15.604;2023-05-08T06:17:16;102045.34;;;7.71;69.28
40794;BME280;26502;51.886;15.604;2023-05-08T06:22:32;102041.66;;;7.97;69.01
40794;BME280;26502;51.886;15.604;2023-05-08T06:27:38;102044.83;;;8.22;68.69
40794;BME280;26502;51.886;15.604;2023-05-08T06:32:44;102045.16;;;8.41;68.34
40794;BME280;26502;51.886;15.604;2023-05-08T06:37:50;102046.94;;;8.57;67.96
40794;BME280;26502;51.886;15.604;2023-05-08T06:42:56;102047.98;;;8.69;67.77
40794;BME280;26502;51.886;15.604;2023-05-08T06:48:02;102046.66;;;8.88;67.25
40794;BME280;26502;51.886;15.604;2023-05-08T06:53:08;102047.42;;;9.19;66.87
40794;BME280;26502;51.886;15.604;2023-05-08T06:58:14;102039.97;;;9.22;66.14
40794;BME280;26502;51.886;15.604;2023-05-08T07:03:20;102043.55;;;9.49;65.92
40794;BME280;26502;51.886;15.604;2023-05-08T07:08:27;102041.26;;;9.73;65.55
40794;BME280;26502;51.886;15.604;2023-05-08T07:13:33;102043.85;;;9.81;64.89
40794;BME280;26502;51.886;15.604;2023-05-08T07:18:39;102045.02;;;9.91;64.57
40794;BME280;26502;51.886;15.604;2023-05-08T07:23:45;102038.15;;;10.07;64.43
40794;BME280;26502;51.886;15.604;2023-05-08T07:28:54;102037.73;;;10.34;64.23
40794;BME280;26502;51.886;15.604;2023-05-08T07:34:00;102037.67;;;10.76;64.00
40794;BME280;26502;51.886;15.604;2023-05-08T07:39:06;102036.47;;;10.88;62.97
40794;BME280;26502;51.886;15.604;2023-05-08T07:44:13;102034.80;;;10.94;62.79
40794;BME280;26502;51.886;15.604;2023-05-08T07:49:19;102035.27;;;11.26;62.15
40794;BME280;26502;51.886;15.604;2023-05-08T07:54:25;102031.58;;;11.49;61.24
40794;BME280;26502;51.886;15.604;2023-05-08T07:59:31;102030.84;;;11.63;60.75
40794;BME280;26502;51.886;15.604;2023-05-08T08:04:37;102027.06;;;11.76;59.84
40794;BME280;26502;51.886;15.604;2023-05-08T08:09:43;102025.38;;;11.81;58.57
40794;BME280;26502;51.886;15.604;2023-05-08T08:14:50;102027.51;;;11.82;57.28
40794;BME280;26502;51.886;15.604;2023-05-08T08:19:55;102028.75;;;12.16;57.26
40794;BME280;26502;51.886;15.604;2023-05-08T08:25:02;102031.48;;;12.41;56.24
40794;BME280;26502;51.886;15.604;2023-05-08T08:30:09;102028.78;;;12.53;55.50
40794;BME280;26502;51.886;15.604;2023-05-08T08:35:15;102028.28;;;12.79;55.21
40794;BME280;26502;51.886;15.604;2023-05-08T08:40:21;102027.89;;;12.90;54.72
40794;BME280;26502;51.886;15.604;2023-05-08T08:45:27;102021.88;;;13.12;54.23
40794;BME280;26502;51.886;15.604;2023-05-08T08:50:33;102021.17;;;13.29;53.37
40794;BME280;26502;51.886;15.604;2023-05-08T08:55:45;102016.26;;;13.58;52.82
40794;BME280;26502;51.886;15.604;2023-05-08T09:00:54;102024.50;;;13.57;51.19
40794;BME280;26502;51.886;15.604;2023-05-08T09:06:01;102028.92;;;13.51;50.98
40794;BME280;26502;51.886;15.604;2023-05-08T09:11:07;102017.13;;;13.66;50.68
40794;BME280;26502;51.886;15.604;2023-05-08T09:16:13;102015.02;;;13.72;49.85
40794;BME280;26502;51.886;15.604;2023-05-08T09:21:20;102008.55;;;14.03;49.08
40794;BME280;26502;51.886;15.604;2023-05-08T09:26:31;102016.73;;;14.19;49.23
40794;BME280;26502;51.886;15.604;2023-05-08T09:31:39;102019.00;;;14.40;48.99
40794;BME280;26502;51.886;15.604;2023-05-08T09:36:45;102016.80;;;14.29;47.90
40794;BME280;26502;51.886;15.604;2023-05-08T09:41:58;102011.20;;;14.51;48.12
40794;BME280;26502;51.886;15.604;2023-05-08T09:47:14;102004.16;;;14.86;47.72
40794;BME280;26502;51.886;15.604;2023-05-08T09:52:22;102008.13;;;15.16;47.90
40794;BME280;26502;51.886;15.604;2023-05-08T09:57:29;101995.25;;;15.15;47.09
40794;BME280;26502;51.886;15.604;2023-05-08T10:02:36;101995.40;;;15.22;46.91
40794;BME280;26502;51.886;15.604;2023-05-08T10:07:43;101998.58;;;15.46;46.67
40794;BME280;26502;51.886;15.604;2023-05-08T10:12:49;101991.58;;;15.41;46.26
40794;BME280;26502;51.886;15.604;2023-05-08T10:18:01;101991.84;;;15.39;45.62
40794;BME280;26502;51.886;15.604;2023-05-08T10:23:09;101983.76;;;15.61;45.61
40794;BME280;26502;51.886;15.604;2023-05-08T10:28:17;101981.34;;;15.92;46.10
40794;BME280;26502;51.886;15.604;2023-05-08T10:33:30;101982.25;;;15.97;45.34
40794;BME280;26502;51.886;15.604;2023-05-08T10:38:34;101975.41;;;16.13;45.17
40794;BME280;26502;51.886;15.604;2023-05-08T10:43:42;101964.63;;;16.34;44.72
40794;BME280;26502;51.886;15.604;2023-05-08T10:48:55;101962.80;;;16.46;44.22
40794;BME280;26502;51.886;15.604;2023-05-08T10:54:11;101962.02;;;16.32;43.58
40794;BME280;26502;51.886;15.604;2023-05-08T10:59:21;101956.36;;;16.45;43.99
40794;BME280;26502;51.886;15.604;2023-05-08T11:04:28;101954.95;;;16.92;44.38
40794;BME280;26502;51.886;15.604;2023-05-08T11:09:47;101949.13;;;17.09;43.69
40794;BME280;26502;51.886;15.604;2023-05-08T11:15:00;101943.12;;;17.15;42.61
40794;BME280;26502;51.886;15.604;2023-05-08T11:20:08;101937.64;;;17.09;42.51
40794;BME280;26502;51.886;15.604;2023-05-08T11:25:14;101933.95;;;17.43;42.26
40794;BME280;26502;51.886;15.604;2023-05-08T11:30:22;101920.27;;;17.48;41.55
40794;BME280;26502;51.886;15.604;2023-05-08T11:35:46;101919.23;;;17.47;40.93
40794;BME280;26502;51.886;15.604;2023-05-08T11:41:03;101920.48;;;17.81;41.28
40794;BME280;26502;51.886;15.604;2023-05-08T11:46:15;101918.66;;;17.95;40.36
40794;BME280;26502;51.886;15.604;2023-05-08T11:51:22;101908.13;;;18.18;40.29
40794;BME280;26502;51.886;15.604;2023-05-08T11:56:28;101904.77;;;18.56;39.97
40794;BME280;26502;51.886;15.604;2023-05-08T12:01:35;101898.63;;;18.72;39.46
40794;BME280;26502;51.886;15.604;2023-05-08T12:06:41;101901.60;;;18.97;38.99
40794;BME280;26502;51.886;15.604;2023-05-08T12:11:56;101902.67;;;18.81;38.41
40794;BME280;26502;51.886;15.604;2023-05-08T12:17:03;101894.89;;;18.86;37.98
40794;BME280;26502;51.886;15.604;2023-05-08T12:22:10;101894.55;;;18.75;37.38
40794;BME280;26502;51.886;15.604;2023-05-08T12:27:16;101899.30;;;18.84;37.27
40794;BME280;26502;51.886;15.604;2023-05-08T12:32:23;101892.91;;;19.13;36.86
40794;BME280;26502;51.886;15.604;2023-05-08T12:37:29;101894.30;;;19.50;36.52
40794;BME280;26502;51.886;15.604;2023-05-08T12:42:45;101889.13;;;19.46;35.75
40794;BME280;26502;51.886;15.604;2023-05-08T12:47:53;101891.09;;;19.71;35.44
40794;BME280;26502;51.886;15.604;2023-05-08T12:53:06;101889.45;;;20.00;35.17
40794;BME280;26502;51.886;15.604;2023-05-08T12:58:13;101887.77;;;19.94;34.40
40794;BME280;26502;51.886;15.604;2023-05-08T13:03:24;101877.58;;;19.85;33.73
40794;BME280;26502;51.886;15.604;2023-05-08T13:08:34;101871.31;;;20.05;33.72
40794;BME280;26502;51.886;15.604;2023-05-08T13:13:40;101869.88;;;20.18;32.91
40794;BME280;26502;51.886;15.604;2023-05-08T13:18:46;101875.13;;;20.01;32.18
40794;BME280;26502;51.886;15.604;2023-05-08T13:23:52;101870.08;;;19.69;31.59
40794;BME280;26502;51.886;15.604;2023-05-08T13:28:57;101864.19;;;19.83;32.25
40794;BME280;26502;51.886;15.604;2023-05-08T13:34:04;101860.35;;;20.21;32.54
40794;BME280;26502;51.886;15.604;2023-05-08T13:39:10;101851.11;;;20.22;32.36
40794;BME280;26502;51.886;15.604;2023-05-08T13:44:16;101850.69;;;20.06;32.22
40794;BME280;26502;51.886;15.604;2023-05-08T13:49:22;101843.04;;;20.21;32.06
40794;BME280;26502;51.886;15.604;2023-05-08T13:54:30;101840.37;;;20.00;32.04
40794;BME280;26502;51.886;15.604;2023-05-08T13:59:36;101842.82;;;20.32;31.80
40794;BME280;26502;51.886;15.604;2023-05-08T14:04:42;101843.43;;;20.27;31.38
40794;BME280;26502;51.886;15.604;2023-05-08T14:09:49;101836.89;;;20.18;31.11
40794;BME280;26502;51.886;15.604;2023-05-08T14:14:56;101835.74;;;20.32;31.38
40794;BME280;26502;51.886;15.604;2023-05-08T14:20:04;101838.87;;;20.57;31.63
40794;BME280;26502;51.886;15.604;2023-05-08T14:25:10;101830.45;;;21.13;31.65
40794;BME280;26502;51.886;15.604;2023-05-08T14:30:16;101835.88;;;20.88;30.94
40794;BME280;26502;51.886;15.604;2023-05-08T14:35:22;101828.44;;;20.95;31.30
40794;BME280;26502;51.886;15.604;2023-05-08T14:40:28;101821.52;;;21.33;31.43
40794;BME280;26502;51.886;15.604;2023-05-08T14:45:35;101821.19;;;21.54;31.40
40794;BME280;26502;51.886;15.604;2023-05-08T14:50:41;101815.61;;;21.29;30.95
40794;BME280;26502;51.886;15.604;2023-05-08T14:55:47;101815.66;;;21.22;31.36
40794;BME280;26502;51.886;15.604;2023-05-08T15:00:53;101812.75;;;21.71;31.43
40794;BME280;26502;51.886;15.604;2023-05-08T15:05:59;101813.83;;;21.53;30.80
40794;BME280;26502;51.886;15.604;2023-05-08T15:11:05;101811.04;;;21.15;30.66
40794;BME280;26502;51.886;15.604;2023-05-08T15:16:11;101798.37;;;21.19;30.97
40794;BME280;26502;51.886;15.604;2023-05-08T15:21:16;101802.78;;;21.44;31.00
40794;BME280;26502;51.886;15.604;2023-05-08T15:26:23;101807.86;;;21.35;30.79
40794;BME280;26502;51.886;15.604;2023-05-08T15:31:29;101798.92;;;21.18;30.65
40794;BME280;26502;51.886;15.604;2023-05-08T15:36:35;101786.20;;;21.23;30.69
40794;BME280;26502;51.886;15.604;2023-05-08T15:41:41;101799.57;;;21.19;30.91
40794;BME280;26502;51.886;15.604;2023-05-08T15:46:47;101801.36;;;21.38;30.74
40794;BME280;26502;51.886;15.604;2023-05-08T15:51:53;101793.41;;;21.38;30.61
40794;BME280;26502;51.886;15.604;2023-05-08T15:56:59;101794.59;;;21.36;30.54
40794;BME280;26502;51.886;15.604;2023-05-08T16:02:05;101788.45;;;21.12;30.50
40794;BME280;26502;51.886;15.604;2023-05-08T16:07:11;101786.50;;;20.96;30.27
40794;BME280;26502;51.886;15.604;2023-05-08T16:12:17;101780.08;;;20.66;30.49
40794;BME280;26502;51.886;15.604;2023-05-08T16:17:24;101772.23;;;20.58;30.60
40794;BME280;26502;51.886;15.604;2023-05-08T16:22:30;101774.71;;;20.53;30.72
40794;BME280;26502;51.886;15.604;2023-05-08T16:27:36;101772.14;;;20.05;30.75
40794;BME280;26502;51.886;15.604;2023-05-08T16:32:42;101765.11;;;19.68;30.86
40794;BME280;26502;51.886;15.604;2023-05-08T16:37:49;101763.83;;;19.58;31.16
40794;BME280;26502;51.886;15.604;2023-05-08T16:42:54;101771.58;;;19.30;31.38
40794;BME280;26502;51.886;15.604;2023-05-08T16:48:00;101764.23;;;18.83;31.67
40794;BME280;26502;51.886;15.604;2023-05-08T16:53:07;101763.65;;;18.58;31.89
40794;BME280;26502;51.886;15.604;2023-05-08T16:58:12;101765.81;;;18.23;32.20
40794;BME280;26502;51.886;15.604;2023-05-08T17:03:19;101760.03;;;17.89;32.37
40794;BME280;26502;51.886;15.604;2023-05-08T17:08:25;101759.91;;;17.55;32.65
40794;BME280;26502;51.886;15.604;2023-05-08T17:13:31;101756.02;;;17.30;32.99
40794;BME280;26502;51.886;15.604;2023-05-08T17:18:37;101758.33;;;17.18;33.45
40794;BME280;26502;51.886;15.604;2023-05-08T17:23:43;101760.79;;;16.93;33.82
40794;BME280;26502;51.886;15.604;2023-05-08T17:28:50;101759.03;;;16.92;34.01
40794;BME280;26502;51.886;15.604;2023-05-08T17:33:56;101763.37;;;16.74;34.75
40794;BME280;26502;51.886;15.604;2023-05-08T17:39:02;101764.02;;;16.58;34.99
40794;BME280;26502;51.886;15.604;2023-05-08T17:44:09;101770.06;;;16.32;35.16
40794;BME280;26502;51.886;15.604;2023-05-08T17:49:15;101769.48;;;16.15;35.86
40794;BME280;26502;51.886;15.604;2023-05-08T17:54:21;101775.16;;;16.01;36.33
40794;BME280;26502;51.886;15.604;2023-05-08T17:59:27;101777.81;;;15.83;36.48
40794;BME280;26502;51.886;15.604;2023-05-08T18:04:33;101784.20;;;15.69;36.91
40794;BME280;26502;51.886;15.604;2023-05-08T18:09:40;101788.77;;;15.56;37.37
40794;BME280;26502;51.886;15.604;2023-05-08T18:14:45;101798.70;;;15.33;37.68
40794;BME280;26502;51.886;15.604;2023-05-08T18:19:52;101798.20;;;15.11;37.94
40794;BME280;26502;51.886;15.604;2023-05-08T18:24:58;101799.30;;;14.94;38.60
40794;BME280;26502;51.886;15.604;2023-05-08T18:30:08;101798.97;;;14.71;38.99
40794;BME280;26502;51.886;15.604;2023-05-08T18:35:14;101799.85;;;14.53;39.49
40794;BME280;26502;51.886;15.604;2023-05-08T18:40:20;101803.44;;;14.30;39.74
40794;BME280;26502;51.886;15.604;2023-05-08T18:45:26;101811.80;;;14.12;40.34
40794;BME280;26502;51.886;15.604;2023-05-08T18:50:32;101817.02;;;13.98;40.89
40794;BME280;26502;51.886;15.604;2023-05-08T18:55:38;101820.88;;;13.82;41.19
40794;BME280;26502;51.886;15.604;2023-05-08T19:00:45;101823.44;;;13.60;41.41
40794;BME280;26502;51.886;15.604;2023-05-08T19:05:52;101821.55;;;13.36;42.07
40794;BME280;26502;51.886;15.604;2023-05-08T19:10:59;101825.60;;;13.16;41.99
40794;BME280;26502;51.886;15.604;2023-05-08T19:16:05;101828.93;;;12.97;42.40
40794;BME280;26502;51.886;15.604;2023-05-08T19:21:11;101834.31;;;12.72;42.60
40794;BME280;26502;51.886;15.604;2023-05-08T19:26:17;101836.52;;;12.53;43.17
40794;BME280;26502;51.886;15.604;2023-05-08T19:31:23;101834.00;;;12.38;43.38
40794;BME280;26502;51.886;15.604;2023-05-08T19:36:29;101837.63;;;12.18;43.76
40794;BME280;26502;51.886;15.604;2023-05-08T19:41:35;101836.26;;;12.07;44.07
40794;BME280;26502;51.886;15.604;2023-05-08T19:46:41;101834.22;;;11.81;44.42
40794;BME280;26502;51.886;15.604;2023-05-08T19:51:47;101836.30;;;11.57;44.77
40794;BME280;26502;51.886;15.604;2023-05-08T19:56:55;101840.50;;;11.39;45.00
40794;BME280;26502;51.886;15.604;2023-05-08T20:02:01;101834.06;;;11.20;45.30
40794;BME280;26502;51.886;15.604;2023-05-08T20:07:07;101835.58;;;11.04;45.69
40794;BME280;26502;51.886;15.604;2023-05-08T20:12:14;101837.67;;;10.83;45.85
40794;BME280;26502;51.886;15.604;2023-05-08T20:17:20;101833.30;;;10.66;46.26
40794;BME280;26502;51.886;15.604;2023-05-08T20:22:26;101833.97;;;10.57;46.53
40794;BME280;26502;51.886;15.604;2023-05-08T20:27:32;101833.93;;;10.47;46.76
40794;BME280;26502;51.886;15.604;2023-05-08T20:32:38;101836.27;;;10.28;47.13
40794;BME280;26502;51.886;15.604;2023-05-08T20:37:45;101836.06;;;10.16;47.40
40794;BME280;26502;51.886;15.604;2023-05-08T20:42:51;101834.52;;;9.96;47.67
40794;BME280;26502;51.886;15.604;2023-05-08T20:47:57;101830.19;;;9.87;47.86
40794;BME280;26502;51.886;15.604;2023-05-08T20:53:03;101835.92;;;9.82;48.09
40794;BME280;26502;51.886;15.604;2023-05-08T20:58:09;101835.52;;;9.70;48.31
40794;BME280;26502;51.886;15.604;2023-05-08T21:03:15;101838.08;;;9.61;48.54
40794;BME280;26502;51.886;15.604;2023-05-08T21:08:23;101834.98;;;9.51;48.73
40794;BME280;26502;51.886;15.604;2023-05-08T21:13:29;101832.48;;;9.34;49.03
40794;BME280;26502;51.886;15.604;2023-05-08T21:18:35;101829.03;;;9.23;49.36
40794;BME280;26502;51.886;15.604;2023-05-08T21:23:42;101821.91;;;9.05;49.49
40794;BME280;26502;51.886;15.604;2023-05-08T21:28:48;101819.73;;;8.88;49.68
40794;BME280;26502;51.886;15.604;2023-05-08T21:33:55;101823.02;;;8.74;50.07
40794;BME280;26502;51.886;15.604;2023-05-08T21:39:02;101823.77;;;8.68;50.31
40794;BME280;26502;51.886;15.604;2023-05-08T21:44:09;101824.01;;;8.57;50.61
40794;BME280;26502;51.886;15.604;2023-05-08T21:49:16;101820.15;;;8.50;50.79
40794;BME280;26502;51.886;15.604;2023-05-08T21:54:21;101821.75;;;8.49;51.05
40794;BME280;26502;51.886;15.604;2023-05-08T21:59:27;101820.84;;;8.55;51.17
40794;BME280;26502;51.886;15.604;2023-05-08T22:04:34;101821.42;;;8.41;51.33
40794;BME280;26502;51.886;15.604;2023-05-08T22:09:40;101823.60;;;8.27;51.41
40794;BME280;26502;51.886;15.604;2023-05-08T22:14:46;101828.08;;;8.16;51.72
40794;BME280;26502;51.886;15.604;2023-05-08T22:19:51;101826.85;;;8.11;51.92
40794;BME280;26502;51.886;15.604;2023-05-08T22:24:57;101826.52;;;8.00;52.03
40794;BME280;26502;51.886;15.604;2023-05-08T22:30:04;101826.21;;;7.92;52.27
40794;BME280;26502;51.886;15.604;2023-05-08T22:35:10;101822.16;;;7.85;52.49
40794;BME280;26502;51.886;15.604;2023-05-08T22:40:16;101824.14;;;7.75;52.63
40794;BME280;26502;51.886;15.604;2023-05-08T22:45:23;101818.65;;;7.73;52.91
40794;BME280;26502;51.886;15.604;2023-05-08T22:50:30;101822.54;;;7.76;53.09
40794;BME280;26502;51.886;15.604;2023-05-08T22:55:36;101815.46;;;7.75;53.20
40794;BME280;26502;51.886;15.604;2023-05-08T23:00:42;101809.45;;;7.77;53.30
40794;BME280;26502;51.886;15.604;2023-05-08T23:05:48;101809.27;;;7.77;53.30
40794;BME280;26502;51.886;15.604;2023-05-08T23:10:54;101808.58;;;7.70;53.52
40794;BME280;26502;51.886;15.604;2023-05-08T23:16:00;101812.30;;;7.68;53.71
40794;BME280;26502;51.886;15.604;2023-05-08T23:21:07;101810.17;;;7.64;53.75
40794;BME280;26502;51.886;15.604;2023-05-08T23:26:13;101808.94;;;7.68;54.03
40794;BME280;26502;51.886;15.604;2023-05-08T23:31:19;101803.64;;;7.66;53.98
40794;BME280;26502;51.886;15.604;2023-05-08T23:36:25;101805.61;;;7.53;54.00
40794;BME280;26502;51.886;15.604;2023-05-08T23:41:31;101801.05;;;7.38;54.27
40794;BME280;26502;51.886;15.604;2023-05-08T23:46:37;101799.30;;;7.32;54.42
40794;BME280;26502;51.886;15.604;2023-05-08T23:51:43;101793.81;;;7.19;54.44
40794;BME280;26502;51.886;15.604;2023-05-08T23:56:49;101785.33;;;7.07;54.60
